createdAt,value
2017-05-07T00:00:17.542Z,22.45
2017-05-07T00:01:17.569Z,22.45
2017-05-07T00:02:17.896Z,22.41
2017-05-07T00:03:17.745Z,22.44
2017-05-07T00:04:17.660Z,22.32
2017-05-07T00:05:17.837Z,22.38
2017-05-07T00:06:17.706Z,22.39
2017-05-07T00:07:17.738Z,22.36
2017-05-07T00:08:18.062Z,22.36
2017-05-07T00:09:17.793Z,22.35
2017-05-07T00:10:17.824Z,22.38
2017-05-07T00:11:18.167Z,22.3
2017-05-07T00:12:17.978Z,22.25
2017-05-07T00:13:17.904Z,22.32
2017-05-07T00:14:18.586Z,22.25
2017-05-07T00:15:18.263Z,22.18
2017-05-07T00:16:18.292Z,22.17
2017-05-07T00:17:18.320Z,22.22
2017-05-07T00:18:18.350Z,22.1
2017-05-07T00:19:18.390Z,22.17
2017-05-07T00:20:18.190Z,22.14
2017-05-07T00:21:18.746Z,22.1
2017-05-07T00:22:18.467Z,22.07
2017-05-07T00:23:18.188Z,22.06
2017-05-07T00:24:18.814Z,22.06
2017-05-07T00:25:18.248Z,22.11
2017-05-07T00:26:18.272Z,22.17
2017-05-07T00:27:18.432Z,22.2
2017-05-07T00:28:18.344Z,22.17
2017-05-07T00:29:18.408Z,22.25
2017-05-07T00:30:18.385Z,22.11
2017-05-07T00:31:19.016Z,22.11
2017-05-07T00:32:18.797Z,22.13
2017-05-07T00:33:18.814Z,22.15
2017-05-07T00:34:18.837Z,22.07
2017-05-07T00:35:18.606Z,22.1
2017-05-07T00:36:19.152Z,22.08
2017-05-07T00:37:18.881Z,22.15
2017-05-07T00:38:18.611Z,22.06
2017-05-07T00:39:18.943Z,22.07
2017-05-07T00:40:19.124Z,22.06
2017-05-07T00:41:18.695Z,22
2017-05-07T00:42:18.722Z,22.06
2017-05-07T00:43:18.750Z,22
2017-05-07T00:44:18.824Z,21.95
2017-05-07T00:45:18.816Z,21.98
2017-05-07T00:46:19.196Z,21.96
2017-05-07T00:47:18.862Z,22.02
2017-05-07T00:48:19.196Z,22.06
2017-05-07T00:49:18.920Z,22.08
2017-05-07T00:50:19.259Z,22.06
2017-05-07T00:51:18.970Z,21.98
2017-05-07T00:52:19.299Z,21.98
2017-05-07T00:53:19.334Z,21.96
2017-05-07T00:54:19.058Z,21.92
2017-05-07T00:55:19.388Z,21.98
2017-05-07T00:56:19.116Z,21.98
2017-05-07T00:57:19.453Z,22.04
2017-05-07T00:58:19.479Z,21.95
2017-05-07T00:59:19.512Z,22
2017-05-07T01:00:19.228Z,21.98
2017-05-07T01:01:19.301Z,21.96
2017-05-07T01:02:19.581Z,21.99
2017-05-07T01:03:20.096Z,21.98
2017-05-07T01:04:19.334Z,21.99
2017-05-07T01:05:19.670Z,21.92
2017-05-07T01:06:19.394Z,21.96
2017-05-07T01:07:19.725Z,21.99
2017-05-07T01:08:19.751Z,21.96
2017-05-07T01:09:19.777Z,21.99
2017-05-07T01:10:19.504Z,21.95
2017-05-07T01:11:19.534Z,21.98
2017-05-07T01:12:19.561Z,22.02
2017-05-07T01:13:19.893Z,22
2017-05-07T01:14:19.915Z,22
2017-05-07T01:15:19.946Z,22.06
2017-05-07T01:16:19.672Z,22
2017-05-07T01:17:20.004Z,21.85
2017-05-07T01:18:20.037Z,21.95
2017-05-07T01:19:19.757Z,21.95
2017-05-07T01:20:20.148Z,21.96
2017-05-07T01:21:20.116Z,21.96
2017-05-07T01:22:19.838Z,21.95
2017-05-07T01:23:20.177Z,21.93
2017-05-07T01:24:20.200Z,21.88
2017-05-07T01:25:19.922Z,21.95
2017-05-07T01:26:20.559Z,21.91
2017-05-07T01:27:20.282Z,21.92
2017-05-07T01:28:20.006Z,21.99
2017-05-07T01:29:20.043Z,21.95
2017-05-07T01:30:20.116Z,21.89
2017-05-07T01:31:20.687Z,21.83
2017-05-07T01:32:20.220Z,21.91
2017-05-07T01:33:20.450Z,21.91
2017-05-07T01:34:20.482Z,21.91
2017-05-07T01:35:20.551Z,21.83
2017-05-07T01:36:20.831Z,21.8
2017-05-07T01:37:20.905Z,21.82
2017-05-07T01:38:20.889Z,21.77
2017-05-07T01:39:20.313Z,21.77
2017-05-07T01:40:20.953Z,21.7
2017-05-07T01:41:20.471Z,21.75
2017-05-07T01:42:20.699Z,21.72
2017-05-07T01:43:20.729Z,21.76
2017-05-07T01:44:21.060Z,21.76
2017-05-07T01:45:20.794Z,21.76
2017-05-07T01:46:20.817Z,21.77
2017-05-07T01:47:21.143Z,21.67
2017-05-07T01:48:20.869Z,21.69
2017-05-07T01:49:20.597Z,21.76
2017-05-07T01:50:21.358Z,21.76
2017-05-07T01:51:21.038Z,21.82
2017-05-07T01:52:20.676Z,21.77
2017-05-07T01:53:20.972Z,21.83
2017-05-07T01:54:21.035Z,21.76
2017-05-07T01:55:21.025Z,21.75
2017-05-07T01:56:21.153Z,21.76
2017-05-07T01:57:21.423Z,21.69
2017-05-07T01:58:21.197Z,21.77
2017-05-07T01:59:21.177Z,21.75
2017-05-07T02:00:20.938Z,21.79
2017-05-07T02:01:21.651Z,21.7
2017-05-07T02:02:20.956Z,21.73
2017-05-07T02:03:21.283Z,21.77
2017-05-07T02:04:21.317Z,21.7
2017-05-07T02:05:21.348Z,21.6
2017-05-07T02:06:22.102Z,21.69
2017-05-07T02:07:21.395Z,21.75
2017-05-07T02:08:21.499Z,21.66
2017-05-07T02:09:21.147Z,21.67
2017-05-07T02:10:21.184Z,21.76
2017-05-07T02:11:21.510Z,21.66
2017-05-07T02:12:21.230Z,21.69
2017-05-07T02:13:21.583Z,21.66
2017-05-07T02:14:21.589Z,21.51
2017-05-07T02:15:21.627Z,21.51
2017-05-07T02:16:21.344Z,21.54
2017-05-07T02:17:21.371Z,21.52
2017-05-07T02:18:21.703Z,21.51
2017-05-07T02:19:22.030Z,21.54
2017-05-07T02:20:21.451Z,21.54
2017-05-07T02:21:21.785Z,21.5
2017-05-07T02:22:21.556Z,21.51
2017-05-07T02:23:22.135Z,21.58
2017-05-07T02:24:21.562Z,21.64
2017-05-07T02:25:21.897Z,21.54
2017-05-07T02:26:21.618Z,21.54
2017-05-07T02:27:21.947Z,21.57
2017-05-07T02:28:21.976Z,21.55
2017-05-07T02:29:21.703Z,21.51
2017-05-07T02:30:21.736Z,21.55
2017-05-07T02:31:21.940Z,21.62
2017-05-07T02:32:21.788Z,21.58
2017-05-07T02:33:22.108Z,21.48
2017-05-07T02:34:21.843Z,21.52
2017-05-07T02:35:21.880Z,21.52
2017-05-07T02:36:22.200Z,21.57
2017-05-07T02:37:22.226Z,21.52
2017-05-07T02:38:22.248Z,21.55
2017-05-07T02:39:22.332Z,21.42
2017-05-07T02:40:22.334Z,21.42
2017-05-07T02:41:22.331Z,21.36
2017-05-07T02:42:22.362Z,21.43
2017-05-07T02:43:22.409Z,21.48
2017-05-07T02:44:22.122Z,21.46
2017-05-07T02:45:22.153Z,21.43
2017-05-07T02:46:22.173Z,21.43
2017-05-07T02:47:22.510Z,21.46
2017-05-07T02:48:22.235Z,21.5
2017-05-07T02:49:22.861Z,21.45
2017-05-07T02:50:22.292Z,21.36
2017-05-07T02:51:22.628Z,21.3
2017-05-07T02:52:22.640Z,21.27
2017-05-07T02:53:22.375Z,21.3
2017-05-07T02:54:22.695Z,21.25
2017-05-07T02:55:22.832Z,21.29
2017-05-07T02:56:22.773Z,21.29
2017-05-07T02:57:22.479Z,21.27
2017-05-07T02:58:22.707Z,21.3
2017-05-07T02:59:23.144Z,21.27
2017-05-07T03:00:22.862Z,21.07
2017-05-07T03:01:22.586Z,21.18
2017-05-07T03:02:22.613Z,21.22
2017-05-07T03:03:22.956Z,21.18
2017-05-07T03:04:22.990Z,21.22
2017-05-07T03:05:23.001Z,21.17
2017-05-07T03:06:22.729Z,21.15
2017-05-07T03:07:23.127Z,21.17
2017-05-07T03:08:22.785Z,21.18
2017-05-07T03:09:23.415Z,21.17
2017-05-07T03:10:23.135Z,21.17
2017-05-07T03:11:23.176Z,21.15
2017-05-07T03:12:23.126Z,21.14
2017-05-07T03:13:23.218Z,21.17
2017-05-07T03:14:23.460Z,21.12
2017-05-07T03:15:23.284Z,21.14
2017-05-07T03:16:23.405Z,21.2
2017-05-07T03:17:23.332Z,21.14
2017-05-07T03:18:23.367Z,21.14
2017-05-07T03:19:23.081Z,21.06
2017-05-07T03:20:23.428Z,21.03
2017-05-07T03:21:23.439Z,21.03
2017-05-07T03:22:23.465Z,21.06
2017-05-07T03:23:23.199Z,21.06
2017-05-07T03:24:23.827Z,21.07
2017-05-07T03:25:23.249Z,21.02
2017-05-07T03:26:23.582Z,21.07
2017-05-07T03:27:23.608Z,21.03
2017-05-07T03:28:23.648Z,21.06
2017-05-07T03:29:24.190Z,21.02
2017-05-07T03:30:23.387Z,20.95
2017-05-07T03:31:23.710Z,20.99
2017-05-07T03:32:23.742Z,20.88
2017-05-07T03:33:23.815Z,20.87
2017-05-07T03:34:23.793Z,20.92
2017-05-07T03:35:23.518Z,20.97
2017-05-07T03:36:24.186Z,20.99
2017-05-07T03:37:24.180Z,20.92
2017-05-07T03:38:24.213Z,21
2017-05-07T03:39:23.629Z,21.03
2017-05-07T03:40:23.655Z,20.95
2017-05-07T03:41:23.988Z,20.88
2017-05-07T03:42:24.011Z,20.99
2017-05-07T03:43:23.744Z,21.02
2017-05-07T03:44:24.086Z,20.96
2017-05-07T03:45:23.795Z,20.95
2017-05-07T03:46:23.824Z,21
2017-05-07T03:47:23.861Z,20.93
2017-05-07T03:48:24.181Z,20.84
2017-05-07T03:49:23.910Z,20.85
2017-05-07T03:50:24.021Z,20.8
2017-05-07T03:51:24.017Z,20.93
2017-05-07T03:52:23.990Z,20.8
2017-05-07T03:53:24.321Z,20.8
2017-05-07T03:54:24.345Z,20.88
2017-05-07T03:55:24.378Z,20.84
2017-05-07T03:56:24.401Z,20.75
2017-05-07T03:57:24.430Z,20.8
2017-05-07T03:58:24.180Z,20.77
2017-05-07T03:59:24.476Z,20.85
2017-05-07T04:00:24.204Z,20.81
2017-05-07T04:01:24.263Z,20.81
2017-05-07T04:02:24.857Z,20.81
2017-05-07T04:03:24.592Z,20.69
2017-05-07T04:04:24.924Z,20.75
2017-05-07T04:05:24.338Z,20.74
2017-05-07T04:06:24.436Z,20.75
2017-05-07T04:07:24.399Z,20.69
2017-05-07T04:08:24.741Z,20.72
2017-05-07T04:09:24.752Z,20.74
2017-05-07T04:10:24.476Z,20.6
2017-05-07T04:11:24.503Z,20.7
2017-05-07T04:12:24.834Z,20.66
2017-05-07T04:13:24.857Z,20.74
2017-05-07T04:14:24.586Z,20.72
2017-05-07T04:15:24.913Z,20.67
2017-05-07T04:16:25.245Z,20.66
2017-05-07T04:17:24.672Z,20.74
2017-05-07T04:18:25.019Z,20.74
2017-05-07T04:19:24.726Z,20.72
2017-05-07T04:20:24.749Z,20.8
2017-05-07T04:21:25.084Z,20.7
2017-05-07T04:22:25.406Z,20.67
2017-05-07T04:23:25.129Z,20.65
2017-05-07T04:24:25.449Z,20.56
2017-05-07T04:25:25.552Z,20.63
2017-05-07T04:26:24.917Z,20.65
2017-05-07T04:27:24.940Z,20.65
2017-05-07T04:28:25.970Z,20.63
2017-05-07T04:29:25.229Z,20.67
2017-05-07T04:30:25.340Z,20.65
2017-05-07T04:31:25.053Z,20.63
2017-05-07T04:32:25.571Z,20.66
2017-05-07T04:33:25.106Z,20.6
2017-05-07T04:34:25.439Z,20.58
2017-05-07T04:35:25.162Z,20.67
2017-05-07T04:36:25.219Z,20.59
2017-05-07T04:37:25.220Z,20.59
2017-05-07T04:38:25.245Z,20.63
2017-05-07T04:39:25.271Z,20.58
2017-05-07T04:40:25.595Z,20.63
2017-05-07T04:41:25.570Z,20.63
2017-05-07T04:42:25.651Z,20.72
2017-05-07T04:43:25.680Z,20.69
2017-05-07T04:44:25.604Z,20.62
2017-05-07T04:45:25.731Z,20.56
2017-05-07T04:46:25.760Z,20.65
2017-05-07T04:47:25.817Z,20.69
2017-05-07T04:48:25.814Z,20.62
2017-05-07T04:49:25.854Z,20.58
2017-05-07T04:50:25.858Z,20.65
2017-05-07T04:51:25.893Z,20.52
2017-05-07T04:52:26.218Z,20.66
2017-05-07T04:53:25.943Z,20.67
2017-05-07T04:54:25.790Z,20.7
2017-05-07T04:55:26.044Z,20.69
2017-05-07T04:56:26.183Z,20.59
2017-05-07T04:57:26.118Z,20.65
2017-05-07T04:58:25.781Z,20.56
2017-05-07T04:59:26.416Z,20.59
2017-05-07T05:00:25.839Z,20.65
2017-05-07T05:01:26.166Z,20.65
2017-05-07T05:02:25.939Z,20.67
2017-05-07T05:03:26.542Z,20.63
2017-05-07T05:04:26.278Z,20.58
2017-05-07T05:05:25.977Z,20.58
2017-05-07T05:06:26.001Z,20.62
2017-05-07T05:07:26.029Z,20.59
2017-05-07T05:08:26.352Z,20.63
2017-05-07T05:09:26.533Z,20.6
2017-05-07T05:10:26.110Z,20.59
2017-05-07T05:11:26.132Z,20.65
2017-05-07T05:12:26.163Z,20.66
2017-05-07T05:13:26.793Z,20.63
2017-05-07T05:14:26.519Z,20.7
2017-05-07T05:15:26.250Z,20.63
2017-05-07T05:16:26.265Z,20.59
2017-05-07T05:17:26.596Z,20.66
2017-05-07T05:18:26.323Z,20.56
2017-05-07T05:19:26.655Z,20.56
2017-05-07T05:20:26.782Z,20.5
2017-05-07T05:21:27.017Z,20.51
2017-05-07T05:22:26.734Z,20.56
2017-05-07T05:23:26.461Z,20.56
2017-05-07T05:24:26.789Z,20.51
2017-05-07T05:25:26.865Z,20.52
2017-05-07T05:26:26.543Z,20.56
2017-05-07T05:27:27.174Z,20.59
2017-05-07T05:28:27.204Z,20.52
2017-05-07T05:29:26.624Z,20.55
2017-05-07T05:30:26.795Z,20.56
2017-05-07T05:31:26.990Z,20.55
2017-05-07T05:32:26.711Z,20.52
2017-05-07T05:33:26.738Z,20.51
2017-05-07T05:34:26.758Z,20.56
2017-05-07T05:35:26.792Z,20.55
2017-05-07T05:36:27.420Z,20.59
2017-05-07T05:37:26.994Z,20.63
2017-05-07T05:38:26.922Z,20.55
2017-05-07T05:39:27.193Z,20.58
2017-05-07T05:40:26.921Z,20.55
2017-05-07T05:41:26.951Z,20.52
2017-05-07T05:42:27.271Z,20.63
2017-05-07T05:43:27.004Z,20.6
2017-05-07T05:44:27.324Z,20.65
2017-05-07T05:45:27.053Z,20.56
2017-05-07T05:46:27.389Z,20.66
2017-05-07T05:47:27.121Z,20.52
2017-05-07T05:48:27.446Z,20.56
2017-05-07T05:49:27.464Z,20.6
2017-05-07T05:50:27.491Z,20.62
2017-05-07T05:51:27.219Z,20.56
2017-05-07T05:52:27.547Z,20.51
2017-05-07T05:53:27.286Z,20.52
2017-05-07T05:54:27.649Z,20.56
2017-05-07T05:55:27.327Z,20.58
2017-05-07T05:56:27.663Z,20.59
2017-05-07T05:57:27.383Z,20.59
2017-05-07T05:58:27.413Z,20.58
2017-05-07T05:59:27.469Z,20.63
2017-05-07T06:00:27.759Z,20.56
2017-05-07T06:01:27.500Z,20.43
2017-05-07T06:02:27.522Z,20.48
2017-05-07T06:03:27.846Z,20.48
2017-05-07T06:04:27.871Z,20.43
2017-05-07T06:05:27.904Z,20.58
2017-05-07T06:06:27.622Z,20.6
2017-05-07T06:07:27.655Z,20.52
2017-05-07T06:08:27.682Z,20.47
2017-05-07T06:09:27.711Z,20.52
2017-05-07T06:10:28.038Z,20.55
2017-05-07T06:11:28.364Z,20.5
2017-05-07T06:12:28.266Z,20.58
2017-05-07T06:13:28.118Z,20.52
2017-05-07T06:14:28.457Z,20.58
2017-05-07T06:15:27.873Z,20.59
2017-05-07T06:16:27.893Z,20.6
2017-05-07T06:17:28.223Z,20.43
2017-05-07T06:18:28.563Z,20.41
2017-05-07T06:19:28.392Z,20.52
2017-05-07T06:20:28.006Z,20.55
2017-05-07T06:21:28.329Z,20.39
2017-05-07T06:22:28.058Z,20.44
2017-05-07T06:23:28.093Z,20.56
2017-05-07T06:24:28.110Z,20.58
2017-05-07T06:25:28.441Z,20.6
2017-05-07T06:26:28.169Z,20.48
2017-05-07T06:27:28.490Z,20.52
2017-05-07T06:28:28.833Z,20.56
2017-05-07T06:29:28.548Z,20.62
2017-05-07T06:30:28.271Z,20.65
2017-05-07T06:31:28.347Z,20.56
2017-05-07T06:32:28.323Z,20.56
2017-05-07T06:33:28.356Z,20.58
2017-05-07T06:34:28.666Z,20.59
2017-05-07T06:35:28.710Z,20.6
2017-05-07T06:36:28.729Z,20.56
2017-05-07T06:37:28.468Z,20.58
2017-05-07T06:38:28.790Z,20.66
2017-05-07T06:39:28.825Z,20.52
2017-05-07T06:40:28.541Z,20.58
2017-05-07T06:41:28.803Z,20.55
2017-05-07T06:42:28.598Z,20.56
2017-05-07T06:43:28.939Z,20.52
2017-05-07T06:44:28.951Z,20.56
2017-05-07T06:45:28.679Z,20.52
2017-05-07T06:46:29.020Z,20.41
2017-05-07T06:47:28.790Z,20.4
2017-05-07T06:48:28.762Z,20.51
2017-05-07T06:49:29.137Z,20.47
2017-05-07T06:50:29.112Z,20.44
2017-05-07T06:51:28.842Z,20.48
2017-05-07T06:52:29.177Z,20.47
2017-05-07T06:53:28.903Z,20.47
2017-05-07T06:54:29.222Z,20.43
2017-05-07T06:55:29.571Z,20.4
2017-05-07T06:56:29.271Z,20.39
2017-05-07T06:57:29.130Z,20.43
2017-05-07T06:58:29.029Z,20.43
2017-05-07T06:59:29.065Z,20.44
2017-05-07T07:00:29.376Z,20.48
2017-05-07T07:01:29.414Z,20.52
2017-05-07T07:02:29.450Z,20.43
2017-05-07T07:03:29.174Z,20.43
2017-05-07T07:04:29.195Z,20.48
2017-05-07T07:05:29.223Z,20.4
2017-05-07T07:06:29.548Z,20.43
2017-05-07T07:07:29.281Z,20.47
2017-05-07T07:08:29.303Z,20.44
2017-05-07T07:09:29.335Z,20.32
2017-05-07T07:10:29.358Z,20.37
2017-05-07T07:11:29.689Z,20.43
2017-05-07T07:12:29.409Z,20.41
2017-05-07T07:13:29.767Z,20.5
2017-05-07T07:14:29.460Z,20.39
2017-05-07T07:15:29.480Z,20.41
2017-05-07T07:16:29.511Z,20.43
2017-05-07T07:17:29.790Z,20.41
2017-05-07T07:18:29.572Z,20.41
2017-05-07T07:19:29.893Z,20.43
2017-05-07T07:20:29.620Z,20.4
2017-05-07T07:21:29.657Z,20.41
2017-05-07T07:22:29.978Z,20.47
2017-05-07T07:23:30.321Z,20.44
2017-05-07T07:24:30.024Z,20.43
2017-05-07T07:25:30.053Z,20.43
2017-05-07T07:26:30.098Z,20.41
2017-05-07T07:27:30.124Z,20.39
2017-05-07T07:28:29.835Z,20.47
2017-05-07T07:29:30.211Z,20.47
2017-05-07T07:30:29.892Z,20.48
2017-05-07T07:31:29.924Z,20.44
2017-05-07T07:32:30.294Z,20.43
2017-05-07T07:33:29.987Z,20.48
2017-05-07T07:34:30.607Z,20.43
2017-05-07T07:35:30.326Z,20.41
2017-05-07T07:36:30.062Z,20.47
2017-05-07T07:37:30.382Z,20.51
2017-05-07T07:38:30.124Z,20.4
2017-05-07T07:39:30.442Z,20.43
2017-05-07T07:40:30.167Z,20.52
2017-05-07T07:41:30.506Z,20.47
2017-05-07T07:42:30.217Z,20.39
2017-05-07T07:43:30.542Z,20.43
2017-05-07T07:44:30.573Z,20.39
2017-05-07T07:45:30.824Z,20.55
2017-05-07T07:46:30.784Z,20.47
2017-05-07T07:47:30.356Z,20.36
2017-05-07T07:48:30.386Z,20.44
2017-05-07T07:49:30.754Z,20.43
2017-05-07T07:50:30.435Z,20.5
2017-05-07T07:51:30.463Z,20.52
2017-05-07T07:52:30.486Z,20.48
2017-05-07T07:53:30.510Z,20.4
2017-05-07T07:54:30.849Z,20.44
2017-05-07T07:55:30.871Z,20.4
2017-05-07T07:56:30.604Z,20.44
2017-05-07T07:57:30.638Z,20.56
2017-05-07T07:58:30.643Z,20.59
2017-05-07T07:59:30.678Z,20.56
2017-05-07T08:00:30.701Z,20.51
2017-05-07T08:01:31.030Z,20.43
2017-05-07T08:02:30.768Z,20.44
2017-05-07T08:03:31.323Z,20.52
2017-05-07T08:04:31.109Z,20.51
2017-05-07T08:05:31.132Z,20.59
2017-05-07T08:06:30.865Z,20.52
2017-05-07T08:07:30.942Z,20.58
2017-05-07T08:08:31.164Z,20.55
2017-05-07T08:09:30.943Z,20.5
2017-05-07T08:10:30.965Z,20.51
2017-05-07T08:11:31.013Z,20.56
2017-05-07T08:12:31.344Z,20.59
2017-05-07T08:13:31.049Z,20.59
2017-05-07T08:14:31.684Z,20.52
2017-05-07T08:15:31.404Z,20.48
2017-05-07T08:16:31.745Z,20.44
2017-05-07T08:17:31.462Z,20.44
2017-05-07T08:18:31.486Z,20.59
2017-05-07T08:19:31.530Z,20.62
2017-05-07T08:20:31.608Z,20.51
2017-05-07T08:21:31.565Z,20.58
2017-05-07T08:22:31.896Z,20.55
2017-05-07T08:23:31.675Z,20.52
2017-05-07T08:24:31.396Z,20.52
2017-05-07T08:25:31.371Z,20.58
2017-05-07T08:26:31.404Z,20.56
2017-05-07T08:27:31.480Z,20.65
2017-05-07T08:28:31.763Z,20.59
2017-05-07T08:29:31.487Z,20.65
2017-05-07T08:30:31.972Z,20.56
2017-05-07T08:31:31.841Z,20.52
2017-05-07T08:32:31.861Z,20.56
2017-05-07T08:33:31.588Z,20.56
2017-05-07T08:34:31.618Z,20.56
2017-05-07T08:35:31.641Z,20.55
2017-05-07T08:36:31.668Z,20.59
2017-05-07T08:37:31.697Z,20.6
2017-05-07T08:38:32.021Z,20.58
2017-05-07T08:39:31.803Z,20.52
2017-05-07T08:40:31.778Z,20.55
2017-05-07T08:41:32.121Z,20.52
2017-05-07T08:42:32.142Z,20.58
2017-05-07T08:43:31.855Z,20.56
2017-05-07T08:44:32.211Z,20.51
2017-05-07T08:45:31.923Z,20.48
2017-05-07T08:46:32.547Z,20.51
2017-05-07T08:47:32.270Z,20.44
2017-05-07T08:48:32.294Z,20.4
2017-05-07T08:49:32.048Z,20.4
2017-05-07T08:50:32.047Z,20.47
2017-05-07T08:51:32.071Z,20.43
2017-05-07T08:52:32.413Z,20.59
2017-05-07T08:53:32.159Z,20.51
2017-05-07T08:54:32.207Z,20.6
2017-05-07T08:55:32.529Z,20.58
2017-05-07T08:56:32.204Z,20.56
2017-05-07T08:57:32.567Z,20.58
2017-05-07T08:58:32.265Z,20.62
2017-05-07T08:59:32.585Z,20.56
2017-05-07T09:00:32.345Z,20.56
2017-05-07T09:01:32.345Z,20.59
2017-05-07T09:02:32.372Z,20.58
2017-05-07T09:03:32.802Z,20.56
2017-05-07T09:04:32.723Z,20.56
2017-05-07T09:05:32.758Z,20.52
2017-05-07T09:06:32.477Z,20.56
2017-05-07T09:07:32.511Z,20.58
2017-05-07T09:08:32.532Z,20.59
2017-05-07T09:09:33.162Z,20.62
2017-05-07T09:10:32.588Z,20.62
2017-05-07T09:11:33.225Z,20.63
2017-05-07T09:12:32.692Z,20.59
2017-05-07T09:13:32.963Z,20.52
2017-05-07T09:14:32.705Z,20.5
2017-05-07T09:15:32.727Z,20.59
2017-05-07T09:16:32.746Z,20.51
2017-05-07T09:17:32.790Z,20.52
2017-05-07T09:18:33.105Z,20.62
2017-05-07T09:19:32.834Z,20.52
2017-05-07T09:20:33.160Z,20.56
2017-05-07T09:21:33.191Z,20.51
2017-05-07T09:22:33.400Z,20.55
2017-05-07T09:23:32.953Z,20.51
2017-05-07T09:24:32.967Z,20.47
2017-05-07T09:25:33.004Z,20.58
2017-05-07T09:26:33.019Z,20.59
2017-05-07T09:27:33.094Z,20.58
2017-05-07T09:28:33.069Z,20.59
2017-05-07T09:29:33.398Z,20.55
2017-05-07T09:30:33.429Z,20.56
2017-05-07T09:31:33.457Z,20.58
2017-05-07T09:32:33.480Z,20.63
2017-05-07T09:33:33.509Z,20.63
2017-05-07T09:34:33.561Z,20.56
2017-05-07T09:35:33.893Z,20.56
2017-05-07T09:36:33.599Z,20.63
2017-05-07T09:37:33.316Z,20.6
2017-05-07T09:38:33.347Z,20.56
2017-05-07T09:39:33.370Z,20.59
2017-05-07T09:40:33.391Z,20.63
2017-05-07T09:41:33.421Z,20.51
2017-05-07T09:42:33.638Z,20.59
2017-05-07T09:43:33.600Z,20.56
2017-05-07T09:44:34.872Z,20.6
2017-05-07T09:45:33.590Z,20.63
2017-05-07T09:46:33.558Z,20.65
2017-05-07T09:47:34.186Z,20.66
2017-05-07T09:48:33.644Z,20.63
2017-05-07T09:49:33.644Z,20.69
2017-05-07T09:50:33.662Z,20.7
2017-05-07T09:51:33.688Z,20.67
2017-05-07T09:52:33.715Z,20.65
2017-05-07T09:53:34.039Z,20.65
2017-05-07T09:54:33.767Z,20.67
2017-05-07T09:55:34.103Z,20.65
2017-05-07T09:56:34.125Z,20.65
2017-05-07T09:57:33.853Z,20.65
2017-05-07T09:58:33.882Z,20.74
2017-05-07T09:59:33.908Z,20.69
2017-05-07T10:00:33.936Z,20.66
2017-05-07T10:01:34.016Z,20.67
2017-05-07T10:02:33.995Z,20.78
2017-05-07T10:03:34.323Z,20.74
2017-05-07T10:04:34.038Z,20.69
2017-05-07T10:05:34.064Z,20.81
2017-05-07T10:06:34.096Z,20.75
2017-05-07T10:07:34.446Z,20.75
2017-05-07T10:08:34.147Z,20.69
2017-05-07T10:09:34.183Z,20.69
2017-05-07T10:10:34.201Z,20.69
2017-05-07T10:11:34.228Z,20.72
2017-05-07T10:12:34.260Z,20.72
2017-05-07T10:13:34.300Z,20.74
2017-05-07T10:14:34.310Z,20.78
2017-05-07T10:15:34.341Z,20.84
2017-05-07T10:16:34.462Z,20.84
2017-05-07T10:17:34.971Z,20.88
2017-05-07T10:18:34.724Z,20.85
2017-05-07T10:19:34.450Z,20.85
2017-05-07T10:20:34.476Z,20.75
2017-05-07T10:21:34.801Z,20.77
2017-05-07T10:22:35.129Z,20.82
2017-05-07T10:23:34.567Z,20.84
2017-05-07T10:24:34.889Z,20.85
2017-05-07T10:25:34.611Z,20.87
2017-05-07T10:26:34.640Z,20.85
2017-05-07T10:27:34.964Z,20.87
2017-05-07T10:28:34.991Z,20.88
2017-05-07T10:29:34.756Z,20.81
2017-05-07T10:30:35.051Z,20.82
2017-05-07T10:31:35.077Z,20.84
2017-05-07T10:32:34.805Z,20.78
2017-05-07T10:33:34.903Z,20.81
2017-05-07T10:34:34.854Z,20.75
2017-05-07T10:35:34.880Z,20.77
2017-05-07T10:36:35.211Z,20.77
2017-05-07T10:37:34.939Z,20.84
2017-05-07T10:38:35.012Z,20.75
2017-05-07T10:39:35.297Z,20.72
2017-05-07T10:40:35.018Z,20.8
2017-05-07T10:41:35.048Z,20.85
2017-05-07T10:42:35.379Z,20.77
2017-05-07T10:43:35.397Z,20.81
2017-05-07T10:44:35.453Z,20.87
2017-05-07T10:45:35.452Z,20.82
2017-05-07T10:46:35.180Z,20.82
2017-05-07T10:47:35.208Z,20.81
2017-05-07T10:48:35.588Z,20.85
2017-05-07T10:49:35.559Z,20.9
2017-05-07T10:50:35.590Z,20.87
2017-05-07T10:51:35.313Z,20.8
2017-05-07T10:52:35.339Z,20.9
2017-05-07T10:53:35.364Z,20.87
2017-05-07T10:54:35.703Z,20.85
2017-05-07T10:55:35.761Z,20.93
2017-05-07T10:56:35.757Z,20.93
2017-05-07T10:57:35.485Z,20.95
2017-05-07T10:58:36.108Z,20.95
2017-05-07T10:59:35.834Z,20.9
2017-05-07T11:00:35.562Z,20.84
2017-05-07T11:01:35.588Z,20.84
2017-05-07T11:02:35.914Z,20.9
2017-05-07T11:03:35.937Z,20.9
2017-05-07T11:04:35.667Z,20.93
2017-05-07T11:05:35.987Z,20.85
2017-05-07T11:06:35.789Z,20.85
2017-05-07T11:07:36.060Z,20.87
2017-05-07T11:08:35.775Z,20.88
2017-05-07T11:09:35.806Z,20.87
2017-05-07T11:10:35.995Z,20.9
2017-05-07T11:11:35.853Z,20.87
2017-05-07T11:12:36.191Z,20.93
2017-05-07T11:13:35.913Z,20.95
2017-05-07T11:14:36.242Z,20.95
2017-05-07T11:15:35.964Z,20.88
2017-05-07T11:16:35.997Z,20.92
2017-05-07T11:17:36.018Z,20.81
2017-05-07T11:18:36.357Z,20.95
2017-05-07T11:19:36.082Z,20.84
2017-05-07T11:20:36.148Z,20.85
2017-05-07T11:21:36.430Z,20.96
2017-05-07T11:22:36.391Z,20.99
2017-05-07T11:23:36.487Z,20.87
2017-05-07T11:24:36.208Z,20.87
2017-05-07T11:25:36.545Z,20.93
2017-05-07T11:26:36.278Z,20.92
2017-05-07T11:27:36.592Z,20.88
2017-05-07T11:28:36.315Z,20.81
2017-05-07T11:29:36.348Z,20.88
2017-05-07T11:30:36.375Z,20.93
2017-05-07T11:31:36.404Z,20.93
2017-05-07T11:32:36.735Z,20.87
2017-05-07T11:33:36.754Z,20.9
2017-05-07T11:34:36.490Z,20.9
2017-05-07T11:35:36.610Z,20.87
2017-05-07T11:36:36.850Z,20.92
2017-05-07T11:37:36.867Z,20.85
2017-05-07T11:38:36.594Z,20.87
2017-05-07T11:39:36.622Z,20.85
2017-05-07T11:40:36.756Z,20.93
2017-05-07T11:41:36.669Z,20.93
2017-05-07T11:42:36.700Z,21
2017-05-07T11:43:37.024Z,20.96
2017-05-07T11:44:37.058Z,20.97
2017-05-07T11:45:36.985Z,20.93
2017-05-07T11:46:36.806Z,20.95
2017-05-07T11:47:36.846Z,20.99
2017-05-07T11:48:37.168Z,20.88
2017-05-07T11:49:36.889Z,20.95
2017-05-07T11:50:36.910Z,20.92
2017-05-07T11:51:37.251Z,20.93
2017-05-07T11:52:36.972Z,20.93
2017-05-07T11:53:36.996Z,20.97
2017-05-07T11:54:37.026Z,20.92
2017-05-07T11:55:37.358Z,21.02
2017-05-07T11:56:37.080Z,20.96
2017-05-07T11:57:37.103Z,20.82
2017-05-07T11:58:37.139Z,20.95
2017-05-07T11:59:37.468Z,20.96
2017-05-07T12:00:37.189Z,20.93
2017-05-07T12:01:37.513Z,20.93
2017-05-07T12:02:37.242Z,20.95
2017-05-07T12:03:37.267Z,20.92
2017-05-07T12:04:37.291Z,20.97
2017-05-07T12:05:37.339Z,20.99
2017-05-07T12:06:37.351Z,20.9
2017-05-07T12:07:37.376Z,20.96
2017-05-07T12:08:37.403Z,20.99
2017-05-07T12:09:37.438Z,20.92
2017-05-07T12:10:37.456Z,20.9
2017-05-07T12:11:37.786Z,20.88
2017-05-07T12:12:37.545Z,21.02
2017-05-07T12:13:37.847Z,20.95
2017-05-07T12:14:38.018Z,21
2017-05-07T12:15:37.895Z,20.99
2017-05-07T12:16:37.616Z,20.95
2017-05-07T12:17:37.675Z,21.03
2017-05-07T12:18:37.670Z,20.95
2017-05-07T12:19:38.009Z,20.95
2017-05-07T12:20:37.731Z,20.96
2017-05-07T12:21:37.753Z,20.88
2017-05-07T12:22:38.078Z,20.95
2017-05-07T12:23:37.815Z,20.97
2017-05-07T12:24:37.841Z,20.97
2017-05-07T12:25:37.864Z,20.96
2017-05-07T12:26:37.899Z,21.03
2017-05-07T12:27:37.923Z,20.92
2017-05-07T12:28:37.945Z,20.92
2017-05-07T12:29:38.279Z,20.85
2017-05-07T12:30:37.999Z,20.96
2017-05-07T12:31:38.034Z,20.93
2017-05-07T12:32:38.359Z,20.93
2017-05-07T12:33:38.083Z,20.99
2017-05-07T12:34:38.112Z,20.93
2017-05-07T12:35:38.130Z,21.03
2017-05-07T12:36:38.465Z,21.02
2017-05-07T12:37:38.189Z,21.02
2017-05-07T12:38:38.214Z,20.96
2017-05-07T12:39:38.241Z,20.93
2017-05-07T12:40:38.323Z,21.02
2017-05-07T12:41:38.605Z,20.92
2017-05-07T12:42:38.622Z,20.97
2017-05-07T12:43:38.658Z,20.97
2017-05-07T12:44:38.386Z,21
2017-05-07T12:45:38.707Z,20.93
2017-05-07T12:46:38.433Z,20.95
2017-05-07T12:47:38.459Z,21.02
2017-05-07T12:48:39.096Z,21.03
2017-05-07T12:49:38.541Z,20.93
2017-05-07T12:50:38.847Z,20.99
2017-05-07T12:51:38.569Z,21.05
2017-05-07T12:52:38.592Z,21.03
2017-05-07T12:53:38.922Z,21.06
2017-05-07T12:54:38.648Z,20.93
2017-05-07T12:55:38.977Z,20.95